首页
METAR-TAF:

METAR-TAF

机场 :

Tri-Cities Airport

帕斯科, 华盛顿, 美国

纬度: 46-16-11N, 经度: 119-07-00W, 海拔: 124米

当前天气观测

该预报发布于54分钟前的11:02 UTC
风速3节,风向
温度 2°C
湿度 93%
气压 1021 hPa
能見度: 8.0公里
阴天层高于1000英尺
轻雾

METAR: KPSC 111102Z AUTO 08003KT 5SM BR OVC010 02/01 A3015 RMK AO2 RAE00 P0000 T00220006

时间: 03:56 (11:56 UTC)

预报

该预报发布于36分钟前的11:20 UTC
预报有效从11日的 12点(UTC)到 12日的 12点(UTC)
风速3节,风向多变
能見度: 8.0公里
阴天层高于900英尺
轻雾, 附近有阵雨
从 11日的 1800点(UTC)
风速3节,风向多变
能見度: 10公里
阴天层高于1500英尺
从 12日的 0500点(UTC)
风速5节,风向
能見度: 9.7公里
阴天层高于1500英尺
小雨, 轻雾

TAF: KPSC 111120Z 1112/1212 VRB03KT 5SM BR VCSH OVC009 FM111800 VRB03KT P6SM OVC015 FM120500 19005KT 6SM -RA BR OVC015

超过4000个机场的气象观测和天气预报(METAR&TAF报告)。

可查询的气象台以黄色和红色小点在地图上表示。

将鼠标移到小点上方,可查看气象台名称。

然后点击查看天气观测和预报。

如需切换地图:点击带黑十字的绿色按钮放大地图;点击带横线的绿色按钮缩小地图;或者点击绿色箭头查看邻近地区的地图。


METAR-TAF: